createdAt,value
2019-02-05T00:03:04.844Z,1.85
2019-02-05T00:08:33.302Z,1.83
2019-02-05T00:13:56.130Z,1.83
2019-02-05T00:19:31.599Z,1.86
2019-02-05T00:25:34.292Z,1.88
2019-02-05T00:31:05.225Z,1.88
2019-02-05T00:36:35.748Z,1.91
2019-02-05T00:42:08.814Z,1.83
2019-02-05T00:47:14.626Z,1.81
2019-02-05T00:52:20.943Z,1.75
2019-02-05T00:57:32.934Z,1.93
2019-02-05T01:02:40.989Z,1.95
2019-02-05T01:07:50.875Z,1.86
2019-02-05T01:12:57.639Z,1.80
2019-02-05T01:18:07.292Z,1.83
2019-02-05T01:23:15.582Z,1.77
2019-02-05T01:28:48.996Z,1.73
2019-02-05T01:33:56.138Z,1.73
2019-02-05T01:45:51.357Z,1.89
2019-02-05T01:51:07.113Z,1.88
2019-02-05T01:56:41.101Z,1.74
2019-02-05T02:02:09.744Z,1.83
2019-02-05T02:08:01.496Z,1.72
2019-02-05T02:13:53.410Z,1.65
2019-02-05T02:20:09.193Z,1.65
2019-02-05T02:25:42.101Z,1.58
2019-02-05T02:37:16.709Z,1.43
2019-02-05T02:43:01.054Z,1.33
2019-02-05T02:48:10.710Z,1.32
2019-02-05T02:53:33.500Z,1.45
2019-02-05T02:58:45.101Z,1.40
2019-02-05T03:03:53.788Z,1.48
2019-02-05T03:09:15.108Z,1.46
2019-02-05T03:14:46.222Z,1.49
2019-02-05T03:32:25.512Z,1.47
2019-02-05T03:38:41.896Z,1.46
2019-02-05T04:03:36.210Z,1.23
2019-02-05T04:09:22.927Z,1.20
2019-02-05T04:14:56.870Z,1.26
2019-02-05T04:20:49.669Z,1.34
2019-02-05T04:26:33.669Z,1.22
2019-02-05T04:32:23.232Z,1.28
2019-02-05T04:44:31.452Z,1.20
2019-02-05T04:50:04.391Z,1.02
2019-02-05T04:56:15.160Z,1.14
2019-02-05T05:01:46.362Z,1.16
2019-02-05T05:07:33.595Z,1.06
2019-02-05T05:12:35.959Z,0.98
2019-02-05T05:17:37.957Z,1.12
2019-02-05T05:22:40.352Z,1.11
2019-02-05T05:27:42.767Z,1.16
2019-02-05T05:32:44.774Z,1.11
2019-02-05T05:37:49.067Z,1.00
2019-02-05T05:42:51.104Z,1.06
2019-02-05T05:47:53.117Z,1.03
2019-02-05T05:52:55.270Z,1.11
2019-02-05T05:57:57.722Z,1.03
2019-02-05T06:02:59.764Z,0.99
2019-02-05T06:08:01.789Z,1.03
2019-02-05T06:13:06.579Z,1.09
2019-02-05T06:18:08.767Z,0.95
2019-02-05T06:23:11.797Z,0.95
2019-02-05T06:28:13.920Z,0.99
2019-02-05T06:33:16.980Z,1.05
2019-02-05T06:38:22.156Z,0.98
2019-02-05T06:43:24.459Z,1.08
2019-02-05T06:48:26.620Z,1.10
2019-02-05T06:53:28.852Z,1.10
2019-02-05T06:58:31.059Z,1.16
2019-02-05T07:03:33.534Z,1.15
2019-02-05T07:08:35.709Z,1.19
2019-02-05T07:13:42.013Z,1.09
2019-02-05T07:18:44.374Z,1.12
2019-02-05T07:23:47.708Z,1.13
2019-02-05T07:28:58.168Z,1.21
2019-02-05T07:33:53.806Z,1.08
2019-02-05T07:38:55.914Z,1.13
2019-02-05T07:43:58.695Z,1.33
2019-02-05T07:49:02.945Z,1.42
2019-02-05T07:54:05.157Z,1.23
2019-02-05T07:59:10.276Z,1.31
2019-02-05T08:04:12.954Z,1.24
2019-02-05T08:09:17.182Z,1.31
2019-02-05T08:14:21.667Z,1.47
2019-02-05T08:19:23.759Z,1.45
2019-02-05T08:24:25.834Z,1.51
2019-02-05T08:29:28.336Z,1.36
2019-02-05T08:34:30.505Z,1.47
2019-02-05T08:39:32.627Z,1.45
2019-02-05T08:44:35.922Z,1.36
2019-02-05T08:49:38.070Z,1.48
2019-02-05T08:54:40.250Z,1.70
2019-02-05T08:59:42.328Z,1.69
2019-02-05T09:04:47.451Z,1.81
2019-02-05T09:09:49.891Z,1.81
2019-02-05T09:14:52.135Z,1.72
2019-02-05T09:19:54.534Z,1.87
2019-02-05T09:24:57.121Z,1.95
2019-02-05T09:30:00.245Z,2.04
2019-02-05T09:35:03.207Z,2.05
2019-02-05T09:40:10.879Z,2.17
2019-02-05T09:45:13.567Z,2.22
2019-02-05T09:50:16.121Z,2.36
2019-02-05T09:55:20.266Z,2.36
2019-02-05T10:00:25.612Z,2.42
2019-02-05T10:05:29.744Z,2.48
2019-02-05T10:10:31.936Z,2.57
2019-02-05T10:15:35.136Z,2.71
2019-02-05T10:20:37.564Z,2.72
2019-02-05T10:25:39.803Z,2.74
2019-02-05T10:30:44.324Z,2.69
2019-02-05T10:35:46.455Z,2.86
2019-02-05T10:40:48.610Z,2.86
2019-02-05T10:45:50.823Z,3.20
2019-02-05T10:50:53.106Z,3.05
2019-02-05T10:55:55.375Z,3.22
2019-02-05T11:00:57.568Z,3.37
2019-02-05T11:05:59.851Z,3.47
2019-02-05T11:11:02.014Z,3.55
2019-02-05T11:16:07.897Z,3.37
2019-02-05T11:21:10.140Z,3.41
2019-02-05T11:26:12.321Z,3.45
2019-02-05T11:31:14.420Z,3.46
2019-02-05T11:36:16.707Z,3.46
2019-02-05T11:41:18.880Z,3.63
2019-02-05T11:46:24.328Z,3.48
2019-02-05T11:51:26.423Z,3.86
2019-02-05T11:56:28.502Z,3.78
2019-02-05T12:01:39.011Z,3.76
2019-02-05T12:06:42.323Z,4.23
2019-02-05T12:11:47.053Z,4.02
2019-02-05T12:16:49.209Z,4.13
2019-02-05T12:21:51.360Z,4.11
2019-02-05T12:26:56.376Z,4.39
2019-02-05T12:31:58.490Z,4.47
2019-02-05T12:37:00.601Z,4.57
2019-02-05T12:42:02.942Z,4.75
2019-02-05T12:47:05.046Z,4.79
2019-02-05T12:52:09.365Z,4.75
2019-02-05T12:57:12.811Z,4.56
2019-02-05T13:02:14.998Z,4.70
2019-02-05T13:07:17.119Z,4.74
2019-02-05T13:12:19.828Z,4.58
2019-02-05T13:17:23.672Z,4.75
2019-02-05T13:22:25.935Z,4.76
2019-02-05T13:27:28.049Z,4.85
2019-02-05T13:32:30.465Z,4.95
2019-02-05T13:37:32.581Z,5.14
2019-02-05T13:42:34.847Z,4.97
2019-02-05T13:47:36.901Z,5.34
2019-02-05T13:52:39.025Z,5.02
2019-02-05T13:57:43.903Z,5.31
2019-02-05T14:02:47.308Z,5.18
2019-02-05T14:07:49.354Z,5.21
2019-02-05T14:12:51.476Z,5.20
2019-02-05T14:17:53.631Z,4.89
2019-02-05T14:22:57.444Z,4.98
2019-02-05T14:27:59.550Z,5.03
2019-02-05T14:33:01.601Z,4.99
2019-02-05T14:38:08.165Z,5.02
2019-02-05T14:43:10.297Z,5.08
2019-02-05T14:48:12.682Z,4.94
2019-02-05T14:53:15.713Z,4.75
2019-02-05T14:58:18.075Z,4.67
2019-02-05T15:03:20.156Z,4.98
2019-02-05T15:08:22.244Z,4.75
2019-02-05T15:13:24.696Z,4.77
2019-02-05T15:18:27.033Z,4.67
2019-02-05T15:23:29.097Z,4.62
2019-02-05T15:28:31.267Z,4.67
2019-02-05T15:34:02.514Z,4.68
2019-02-05T15:39:11.576Z,4.60
2019-02-05T15:44:13.715Z,4.65
2019-02-05T15:49:15.835Z,4.58
2019-02-05T15:54:17.968Z,4.57
2019-02-05T15:59:22.353Z,4.50
2019-02-05T16:04:26.438Z,4.45
2019-02-05T16:09:31.185Z,4.48
2019-02-05T16:14:33.365Z,4.43
2019-02-05T16:19:35.448Z,4.39
2019-02-05T16:24:37.531Z,4.33
2019-02-05T16:29:40.407Z,4.27
2019-02-05T16:34:42.593Z,4.23
2019-02-05T16:39:44.906Z,4.23
2019-02-05T16:44:47.067Z,4.19
2019-02-05T16:49:51.845Z,4.17
2019-02-05T16:54:56.603Z,4.15
2019-02-05T17:00:00.226Z,4.11
2019-02-05T17:05:03.129Z,4.10
2019-02-05T17:10:08.365Z,4.09
2019-02-05T17:15:11.716Z,4.09
2019-02-05T17:20:19.797Z,4.06
2019-02-05T17:25:23.011Z,4.08
2019-02-05T17:30:31.636Z,4.02
2019-02-05T17:35:35.453Z,4.03
2019-02-05T17:40:38.043Z,4.03
2019-02-05T17:45:40.721Z,4.04
2019-02-05T17:50:42.891Z,3.99
2019-02-05T17:55:48.762Z,4.00
2019-02-05T18:00:56.394Z,4.00
2019-02-05T18:06:27.472Z,4.05
2019-02-05T18:12:11.189Z,4.04
2019-02-05T18:17:13.495Z,4.05
2019-02-05T18:22:26.747Z,4.00
2019-02-05T18:28:10.766Z,3.96
2019-02-05T18:33:41.743Z,3.98
2019-02-05T18:44:58.621Z,4.02
2019-02-05T18:50:04.398Z,4.01
2019-02-05T18:55:11.757Z,3.99
2019-02-05T19:00:20.823Z,3.96
2019-02-05T19:05:26.194Z,3.98
2019-02-05T19:10:29.033Z,3.93
2019-02-05T19:15:32.906Z,3.95
2019-02-05T19:20:35.277Z,3.92
2019-02-05T19:25:46.843Z,3.91
2019-02-05T19:30:50.037Z,3.89
2019-02-05T19:35:52.182Z,3.90
2019-02-05T19:40:57.512Z,3.88
2019-02-05T19:46:17.030Z,3.88
2019-02-05T19:51:19.292Z,3.89
2019-02-05T19:56:37.676Z,3.92
2019-02-05T20:01:32.360Z,3.85
2019-02-05T20:06:35.182Z,3.86
2019-02-05T20:11:38.772Z,3.82
2019-02-05T20:16:41.731Z,3.83
2019-02-05T20:21:44.132Z,3.82
2019-02-05T20:26:47.708Z,3.82
2019-02-05T20:31:50.140Z,3.85
2019-02-05T20:36:52.170Z,3.76
2019-02-05T20:41:54.270Z,3.75
2019-02-05T20:47:00.207Z,3.78
2019-02-05T20:52:13.789Z,3.76
2019-02-05T20:57:41.007Z,3.77
2019-02-05T21:03:01.657Z,3.77
2019-02-05T21:08:12.063Z,3.72
2019-02-05T21:13:14.148Z,3.73
2019-02-05T21:18:25.945Z,3.69
2019-02-05T21:23:51.081Z,3.71
2019-02-05T21:29:09.562Z,3.69
2019-02-05T21:34:25.895Z,3.68
2019-02-05T21:39:41.433Z,3.66
2019-02-05T21:45:21.010Z,3.64
2019-02-05T21:50:36.388Z,3.61
2019-02-05T21:55:48.875Z,3.54
2019-02-05T22:01:06.382Z,3.57
2019-02-05T22:06:27.735Z,3.54
2019-02-05T22:11:51.280Z,3.56
2019-02-05T22:17:03.430Z,3.57
2019-02-05T22:22:19.839Z,3.57
2019-02-05T22:27:37.579Z,3.53
2019-02-05T22:32:53.430Z,3.42
2019-02-05T22:38:12.443Z,3.25
2019-02-05T22:43:32.633Z,3.19
2019-02-05T22:49:12.009Z,3.09
2019-02-05T22:54:33.545Z,2.97
2019-02-05T22:59:44.832Z,2.89
2019-02-05T23:05:35.134Z,2.81
2019-02-05T23:11:09.310Z,2.77
2019-02-05T23:16:25.264Z,2.70
2019-02-05T23:21:41.416Z,2.67
2019-02-05T23:27:12.967Z,2.62
2019-02-05T23:32:48.026Z,2.44
2019-02-05T23:38:14.947Z,2.37
2019-02-05T23:43:35.706Z,2.37
2019-02-05T23:48:54.114Z,2.33
2019-02-05T23:54:06.118Z,2.28
2019-02-05T23:59:33.648Z,2.26
